Time;durP1;ratioP1;P1;durP2;ratioP2;P2;SDS_P1;SDS_P2;PMS_P1;PMS_P2;Temp;Humidity;BMP_temperature;BMP_pressure;BME280_temperature;BME280_humidity;BME280_pressure;Samples;Min_cycle;Max_cycle;Signal;HPM_P1;HPM_P2
2022/05/24 00:00:16;;;;;;;1999.90;999.90;;;14.50;99.90;;;;;;4942862;29;20026;-77
2022/05/24 00:02:42;;;;;;;1999.90;999.90;;;14.50;99.90;;;;;;4934059;28;20123;-84
2022/05/24 00:05:09;;;;;;;1999.90;999.90;;;14.60;99.90;;;;;;4929612;29;20040;-84
2022/05/24 00:07:36;;;;;;;1999.90;999.90;;;14.50;99.90;;;;;;4920705;29;20436;-76
2022/05/24 00:10:05;;;;;;;1999.90;999.90;;;14.50;99.90;;;;;;4919339;29;20027;-76
2022/05/24 00:12:30;;;;;;;1999.90;999.90;;;14.50;99.90;;;;;;4922671;29;20455;-84
2022/05/24 00:17:41;;;;;;;1999.90;999.90;;;14.50;99.90;;;;;;4929510;29;20103;-76
2022/05/24 00:20:07;;;;;;;1999.90;999.90;;;14.50;99.90;;;;;;4918026;29;20127;-84
2022/05/24 00:22:36;;;;;;;1999.90;999.90;;;14.50;99.90;;;;;;4919062;29;20056;-84
2022/05/24 00:25:01;;;;;;;1999.90;999.90;;;14.50;99.90;;;;;;4927567;29;20454;-76
2022/05/24 00:27:28;;;;;;;1999.90;999.90;;;14.50;99.90;;;;;;4922639;29;20067;-84
2022/05/24 00:29:55;;;;;;;1999.90;999.90;;;14.40;99.90;;;;;;4935660;29;20079;-84
2022/05/24 00:32:21;;;;;;;1999.90;999.90;;;14.40;99.90;;;;;;4923670;29;20028;-76
2022/05/24 00:34:46;;;;;;;1999.90;999.90;;;14.50;99.90;;;;;;4918184;29;20558;-76
2022/05/24 00:37:12;;;;;;;1999.90;999.90;;;14.50;99.90;;;;;;4923811;29;20028;-83
2022/05/24 00:39:38;;;;;;;1999.90;999.90;;;14.50;99.90;;;;;;4914595;29;20080;-84
2022/05/24 00:42:12;;;;;;;1999.90;999.90;;;14.50;99.90;;;;;;4921638;29;20033;-76
2022/05/24 00:44:42;;;;;;;1999.90;999.90;;;14.60;99.90;;;;;;4916568;29;20092;-77
2022/05/24 00:47:32;;;;;;;1999.90;999.90;;;14.50;99.90;;;;;;4921622;29;20016;-76
2022/05/24 00:50:05;;;;;;;1999.90;999.90;;;14.30;99.90;;;;;;4918878;29;20025;-84
2022/05/24 00:52:53;;;;;;;1999.90;999.90;;;14.20;99.90;;;;;;4914718;29;20441;-83
2022/05/24 00:55:22;;;;;;;1999.90;999.90;;;14.10;99.90;;;;;;4928136;29;20075;-84
2022/05/24 00:58:12;;;;;;;1999.90;999.90;;;14.10;99.90;;;;;;4928632;29;20087;-77
2022/05/24 01:00:39;;;;;;;1999.90;999.90;;;14.10;99.90;;;;;;4910396;29;20499;-76
2022/05/24 01:03:05;;;;;;;1999.90;999.90;;;14.10;99.90;;;;;;4926424;29;20040;-84
2022/05/24 01:05:31;;;;;;;1999.90;999.90;;;14.10;99.90;;;;;;4914350;29;20032;-84
2022/05/24 01:07:57;;;;;;;1999.90;999.90;;;14.00;99.90;;;;;;4945218;29;20032;-84
2022/05/24 01:11:01;;;;;;;1999.90;999.90;;;14.00;99.90;;;;;;4926702;29;20031;-84
2022/05/24 01:13:30;;;;;;;1999.90;999.90;;;14.00;99.90;;;;;;4882229;29;20055;-76
2022/05/24 01:15:56;;;;;;;1999.90;999.90;;;14.00;99.90;;;;;;4865120;29;20029;-84
2022/05/24 01:18:26;;;;;;;1999.90;999.90;;;14.00;99.90;;;;;;4888848;29;20040;-84
2022/05/24 01:21:02;;;;;;;1999.90;999.90;;;14.00;99.90;;;;;;4876010;29;20136;-83
2022/05/24 01:23:43;;;;;;;1999.90;999.90;;;14.10;99.90;;;;;;4894616;29;20076;-83
2022/05/24 01:26:46;;;;;;;1999.90;999.90;;;14.10;99.90;;;;;;4887251;29;20093;-76
2022/05/24 01:29:12;;;;;;;1999.90;999.90;;;14.10;99.90;;;;;;4881339;29;20033;-83
2022/05/24 01:37:10;;;;;;;1999.90;999.90;;;14.30;99.90;;;;;;4880795;29;20491;-76
2022/05/24 01:39:36;;;;;;;1999.90;999.90;;;14.30;99.90;;;;;;4862696;29;20128;-75
2022/05/24 01:42:04;;;;;;;1999.90;999.90;;;14.20;99.90;;;;;;4877839;29;20033;-84
2022/05/24 01:44:49;;;;;;;1999.90;999.90;;;14.20;99.90;;;;;;4911015;29;20451;-84
2022/05/24 01:47:17;;;;;;;1999.90;999.90;;;14.20;99.90;;;;;;4920850;29;20028;-75
2022/05/24 01:49:48;;;;;;;1999.90;999.90;;;14.20;99.90;;;;;;4921842;29;20107;-76
2022/05/24 01:52:23;;;;;;;1999.90;999.90;;;14.20;99.90;;;;;;4918071;29;20028;-76
2022/05/24 01:54:54;;;;;;;1999.90;999.90;;;14.20;99.90;;;;;;4923427;29;20053;-84
2022/05/24 01:57:48;;;;;;;1999.90;999.90;;;14.20;99.90;;;;;;4925493;29;20541;-83
2022/05/24 02:00:16;;;;;;;1999.90;999.90;;;14.20;99.90;;;;;;4918169;29;20047;-84
2022/05/24 02:02:43;;;;;;;1999.90;999.90;;;14.20;99.90;;;;;;4917744;29;20031;-84
2022/05/24 02:05:09;;;;;;;1999.90;999.90;;;14.30;99.90;;;;;;4917168;29;20066;-76
2022/05/24 02:07:35;;;;;;;1999.90;999.90;;;14.30;99.90;;;;;;4918783;29;20028;-76
2022/05/24 02:10:01;;;;;;;1999.90;999.90;;;14.40;99.90;;;;;;4925122;29;20024;-76
2022/05/24 02:12:40;;;;;;;1999.90;999.90;;;14.40;99.90;;;;;;4928225;29;20431;-83
2022/05/24 02:15:13;;;;;;;1999.90;999.90;;;14.40;99.90;;;;;;4916031;29;20469;-76
2022/05/24 02:17:39;;;;;;;;;;;14.40;99.90;;;;;;4929498;29;20087;-84
2022/05/24 02:20:08;;;;;;;1999.90;999.90;;;14.40;99.90;;;;;;4915888;29;19993;-76
2022/05/24 02:22:36;;;;;;;1999.90;999.90;;;14.30;99.90;;;;;;4915725;29;20032;-76
2022/05/24 02:25:13;;;;;;;1999.90;999.90;;;14.30;99.90;;;;;;4908397;29;20076;-76
2022/05/24 02:27:45;;;;;;;1999.90;999.90;;;14.30;99.90;;;;;;4925965;29;20035;-84
2022/05/24 02:30:13;;;;;;;1999.90;999.90;;;14.30;99.90;;;;;;4921147;29;20019;-83
2022/05/24 02:51:53;;;;;;;1999.90;999.90;;;14.40;99.90;;;;;;4887680;29;20105;-76
2022/05/24 02:54:30;;;;;;;1999.90;999.90;;;14.40;99.90;;;;;;4877356;29;20075;-76
2022/05/24 02:56:58;;;;;;;1999.90;999.90;;;14.40;99.90;;;;;;4882092;29;20068;-84
2022/05/24 02:59:23;;;;;;;1999.90;999.90;;;14.40;99.90;;;;;;4878744;29;20535;-83
2022/05/24 03:01:49;;;;;;;1999.90;999.90;;;14.40;99.90;;;;;;4879226;29;20033;-84
2022/05/24 03:04:15;;;;;;;1999.90;999.90;;;14.30;99.90;;;;;;4879287;29;20081;-76
2022/05/24 03:09:34;;;;;;;1999.90;999.90;;;14.30;99.90;;;;;;4894145;29;20039;-76
2022/05/24 03:14:52;;;;;;;1999.90;999.90;;;14.30;99.90;;;;;;4888040;29;20065;-77
2022/05/24 03:17:19;;;;;;;1999.90;999.90;;;14.30;99.90;;;;;;4887796;29;20504;-77
2022/05/24 03:19:45;;;;;;;1999.90;999.90;;;14.30;99.90;;;;;;4886559;29;20025;-85
2022/05/24 03:22:13;;;;;;;1999.90;999.90;;;14.30;99.90;;;;;;4884811;29;20123;-76
2022/05/24 03:24:39;;;;;;;1999.90;999.90;;;14.30;99.90;;;;;;4896667;29;20157;-84
2022/05/24 03:27:11;;;;;;;1999.90;999.90;;;14.30;99.90;;;;;;4884968;29;20506;-76
2022/05/24 03:29:44;;;;;;;1999.90;999.90;;;14.30;99.90;;;;;;4891658;29;20017;-83
2022/05/24 03:32:12;;;;;;;1999.90;999.90;;;14.20;99.90;;;;;;4886574;29;20098;-76
2022/05/24 03:34:39;;;;;;;1999.90;999.90;;;14.20;99.90;;;;;;4886841;29;20039;-85
2022/05/24 03:37:06;;;;;;;1999.90;999.90;;;14.20;99.90;;;;;;4895773;29;20378;-76
2022/05/24 03:39:32;;;;;;;1999.90;999.90;;;14.10;99.90;;;;;;4893327;29;20029;-77
2022/05/24 03:41:58;;;;;;;1999.90;999.90;;;14.20;99.90;;;;;;4886890;29;20040;-84
2022/05/24 03:44:24;;;;;;;1999.90;999.90;;;14.20;99.90;;;;;;4888011;29;20037;-76
2022/05/24 03:46:52;;;;;;;1999.90;999.90;;;14.10;99.90;;;;;;4884858;29;20059;-77
2022/05/24 03:49:18;;;;;;;1999.90;999.90;;;14.10;99.90;;;;;;4892594;29;20035;-77
2022/05/24 03:51:45;;;;;;;1999.90;999.90;;;14.10;99.90;;;;;;4894741;29;20105;-76
2022/05/24 03:54:12;;;;;;;1999.90;999.90;;;14.20;99.90;;;;;;4888676;29;20029;-84
2022/05/24 03:56:39;;;;;;;1999.90;999.90;;;14.20;99.90;;;;;;4890773;29;20039;-84
2022/05/24 03:59:25;;;;;;;1999.90;999.90;;;14.20;99.90;;;;;;4884867;29;20130;-84
2022/05/24 04:01:51;;;;;;;1999.90;999.90;;;14.10;99.90;;;;;;4884828;29;20154;-84
2022/05/24 04:04:17;;;;;;;1999.90;999.90;;;14.20;99.90;;;;;;4888497;29;20043;-83
2022/05/24 04:06:42;;;;;;;1999.90;999.90;;;14.20;99.90;;;;;;4888551;29;20025;-84
2022/05/24 04:09:08;;;;;;;1999.90;999.90;;;14.20;99.90;;;;;;4894184;29;20056;-76
2022/05/24 04:11:34;;;;;;;1999.90;999.90;;;14.10;99.90;;;;;;4897594;29;20432;-76
2022/05/24 04:14:00;;;;;;;1999.90;999.90;;;14.20;99.90;;;;;;4887036;29;20085;-84
2022/05/24 04:16:26;;;;;;;1999.90;999.90;;;14.20;99.90;;;;;;4883647;29;20021;-84
2022/05/24 04:18:52;;;;;;;1999.90;999.90;;;14.20;99.90;;;;;;4894748;29;20037;-76
2022/05/24 04:21:18;;;;;;;1999.90;999.90;;;14.20;99.90;;;;;;4880924;29;20047;-84
2022/05/24 04:23:44;;;;;;;1999.90;999.90;;;14.30;99.90;;;;;;4883823;29;20044;-84
2022/05/24 04:26:10;;;;;;;1999.90;999.90;;;14.30;99.90;;;;;;4877496;29;20034;-76
2022/05/24 04:28:36;;;;;;;1999.90;999.90;;;14.30;99.90;;;;;;4886108;29;20031;-83
2022/05/24 04:31:02;;;;;;;1999.90;999.90;;;14.30;99.90;;;;;;4895970;29;20482;-77
2022/05/24 04:33:28;;;;;;;1999.90;999.90;;;14.30;99.90;;;;;;4891797;29;20152;-76
2022/05/24 04:35:55;;;;;;;1999.90;999.90;;;14.40;99.90;;;;;;4881875;29;20029;-77
2022/05/24 04:38:21;;;;;;;1999.90;999.90;;;14.40;99.90;;;;;;4894319;29;20029;-77
2022/05/24 04:43:31;;;;;;;1999.90;999.90;;;14.50;99.90;;;;;;4883617;29;20043;-84
2022/05/24 04:45:56;;;;;;;1999.90;999.90;;;14.50;99.90;;;;;;4883687;29;20417;-76
2022/05/24 04:48:23;;;;;;;1999.90;999.90;;;14.50;99.90;;;;;;4882371;29;20052;-76
2022/05/24 04:50:55;;;;;;;1999.90;999.90;;;14.50;99.90;;;;;;4890099;29;20081;-83
2022/05/24 04:53:22;;;;;;;1999.90;999.90;;;14.50;99.90;;;;;;4893053;29;20103;-84
2022/05/24 04:55:49;;;;;;;1999.90;999.90;;;14.50;99.90;;;;;;4890108;29;20033;-85
2022/05/24 04:58:18;;;;;;;1999.90;999.90;;;14.60;99.90;;;;;;4892867;29;20033;-86
2022/05/24 05:00:45;;;;;;;1999.90;999.90;;;14.50;99.90;;;;;;4897548;29;20028;-85
2022/05/24 05:03:13;;;;;;;1999.90;999.90;;;14.50;99.90;;;;;;4895101;29;20033;-86
2022/05/24 05:05:39;;;;;;;1999.90;999.90;;;14.40;99.90;;;;;;4890172;29;20057;-88
2022/05/24 05:08:06;;;;;;;1999.90;999.90;;;14.40;99.90;;;;;;4883879;29;20029;-78
2022/05/24 05:10:34;;;;;;;1999.90;999.90;;;14.40;99.90;;;;;;4890138;29;20069;-86
2022/05/24 05:13:01;;;;;;;1999.90;999.90;;;14.40;99.90;;;;;;4882434;29;20033;-78
2022/05/24 05:15:27;;;;;;;1999.90;999.90;;;14.40;99.90;;;;;;4880920;29;20025;-78
2022/05/24 05:18:08;;;;;;;1999.90;999.90;;;14.40;99.90;;;;;;4878532;29;20037;-78
2022/05/24 05:20:39;;;;;;;1999.90;999.90;;;14.50;99.90;;;;;;4869943;29;20025;-79
2022/05/24 05:23:06;;;;;;;1999.90;999.90;;;14.50;99.90;;;;;;4901140;29;20062;-86
2022/05/24 05:25:32;;;;;;;1999.90;999.90;;;14.60;99.90;;;;;;4880502;29;20523;-79
2022/05/24 05:27:58;;;;;;;1999.90;999.90;;;14.70;99.90;;;;;;4882518;29;20044;-78
2022/05/24 05:33:08;;;;;;;1999.90;999.90;;;14.80;99.90;;;;;;4878458;29;20119;-86
2022/05/24 05:35:34;;;;;;;1999.90;999.90;;;14.90;99.90;;;;;;4880787;29;20108;-79
2022/05/24 05:38:11;;;;;;;1999.90;999.90;;;15.00;99.90;;;;;;4878810;29;20412;-87
2022/05/24 05:40:37;;;;;;;1999.90;999.90;;;15.00;99.90;;;;;;4880407;29;20054;-85
2022/05/24 05:43:04;;;;;;;1999.90;999.90;;;15.10;99.90;;;;;;4885778;29;20409;-78
2022/05/24 05:45:29;;;;;;;1999.90;999.90;;;15.00;99.90;;;;;;4880380;29;20053;-87
2022/05/24 05:47:56;;;;;;;1999.90;999.90;;;15.10;99.90;;;;;;4884943;29;20479;-79
2022/05/24 05:50:22;;;;;;;1999.90;999.90;;;15.10;99.90;;;;;;4881111;29;20504;-79
2022/05/24 05:52:49;;;;;;;1999.90;999.90;;;15.10;99.90;;;;;;4870800;29;20033;-85
2022/05/24 05:55:15;;;;;;;1999.90;999.90;;;15.00;99.90;;;;;;4887954;29;20112;-79
2022/05/24 05:57:40;;;;;;;1999.90;999.90;;;15.00;99.90;;;;;;4882073;29;20112;-85
2022/05/24 06:00:08;;;;;;;1999.90;999.90;;;15.10;99.90;;;;;;4890926;29;20029;-88
2022/05/24 06:02:35;;;;;;;1999.90;999.90;;;15.10;99.90;;;;;;4898367;29;20041;-79
2022/05/24 06:05:01;;;;;;;1999.90;999.90;;;15.20;99.90;;;;;;4884165;29;20036;-79
2022/05/24 06:07:27;;;;;;;1999.90;999.90;;;15.20;99.90;;;;;;4886335;29;20828;-80
2022/05/24 06:09:53;;;;;;;1999.90;999.90;;;15.20;99.90;;;;;;4865546;29;20025;-88
2022/05/24 06:12:20;;;;;;;1999.90;999.90;;;15.40;99.90;;;;;;4877385;29;20400;-87
2022/05/24 06:14:46;;;;;;;1999.90;999.90;;;15.50;99.90;;;;;;4881219;29;20157;-80
2022/05/24 06:17:12;;;;;;;1999.90;999.90;;;15.60;99.90;;;;;;4892151;29;20123;-80
2022/05/24 06:19:38;;;;;;;1999.90;999.90;;;15.70;99.90;;;;;;4892147;29;20024;-87
2022/05/24 06:22:05;;;;;;;1999.90;999.90;;;15.80;99.90;;;;;;4881226;29;20036;-88
2022/05/24 06:24:31;;;;;;;1999.90;999.90;;;15.80;99.90;;;;;;4891562;29;20052;-80
2022/05/24 06:26:56;;;;;;;1999.90;999.90;;;15.80;99.90;;;;;;4890127;29;20033;-84
2022/05/24 06:29:24;;;;;;;1999.90;999.90;;;15.80;99.90;;;;;;4889842;29;20060;-78
2022/05/24 06:31:49;;;;;;;1999.90;999.90;;;15.80;99.90;;;;;;4882980;29;20028;-79
2022/05/24 06:34:15;;;;;;;1999.90;999.90;;;15.80;99.90;;;;;;4881094;29;20054;-82
2022/05/24 06:36:42;;;;;;;1999.90;999.90;;;15.80;99.90;;;;;;4870351;29;20033;-84
2022/05/24 06:39:08;;;;;;;1999.90;999.90;;;15.80;99.90;;;;;;4877203;29;20093;-86
2022/05/24 06:41:33;;;;;;;1999.90;999.90;;;15.70;99.90;;;;;;4887857;29;20028;-78
2022/05/24 06:43:59;;;;;;;1999.90;999.90;;;15.80;99.90;;;;;;4895481;29;20029;-85
2022/05/24 06:46:25;;;;;;;1999.90;999.90;;;15.90;99.90;;;;;;4886905;29;20032;-79
2022/05/24 06:48:51;;;;;;;1999.90;999.90;;;16.00;99.90;;;;;;4880905;29;20410;-79
2022/05/24 06:51:20;;;;;;;1999.90;999.90;;;16.10;99.90;;;;;;4879069;29;20060;-83
2022/05/24 06:53:47;;;;;;;1999.90;999.90;;;16.20;99.90;;;;;;4876818;29;20092;-78
2022/05/24 06:56:13;;;;;;;1999.90;999.90;;;16.30;99.90;;;;;;4876986;29;20053;-84
2022/05/24 06:58:39;;;;;;;1999.90;999.90;;;16.70;99.90;;;;;;4876814;29;20071;-84
2022/05/24 07:03:51;;;;;;;1999.90;999.90;;;17.20;99.90;;;;;;4890616;29;20088;-84
2022/05/24 07:06:17;;;;;;;1999.90;999.90;;;17.40;99.90;;;;;;4882006;29;20037;-82
2022/05/24 07:08:44;;;;;;;1999.90;999.90;;;17.70;99.90;;;;;;4879866;29;20057;-82
2022/05/24 07:11:11;;;;;;;1999.90;999.90;;;17.60;99.90;;;;;;4873076;29;20041;-83
2022/05/24 07:13:38;;;;;;;1999.90;999.90;;;17.50;99.90;;;;;;4877484;29;20084;-78
2022/05/24 07:16:04;;;;;;;1999.90;999.90;;;17.50;99.90;;;;;;4878595;29;20053;-76
2022/05/24 07:18:29;;;;;;;1999.90;999.90;;;17.30;99.90;;;;;;4877264;29;20033;-76
2022/05/24 07:20:55;;;;;;;1999.90;999.90;;;17.30;99.90;;;;;;4883710;29;20403;-76
2022/05/24 07:23:25;;;;;;;1999.90;999.90;;;17.30;99.90;;;;;;4879440;29;20029;-81
2022/05/24 07:25:52;;;;;;;1999.90;999.90;;;17.30;99.90;;;;;;4879978;29;20044;-75
2022/05/24 07:28:19;;;;;;;1999.90;999.90;;;17.40;99.90;;;;;;4876052;29;20025;-75
2022/05/24 07:30:46;;;;;;;1999.90;999.90;;;17.50;99.90;;;;;;4879086;29;20041;-76
2022/05/24 07:33:13;;;;;;;1999.90;999.90;;;17.70;99.90;;;;;;4875723;29;20501;-79
2022/05/24 07:35:40;;;;;;;1999.90;999.90;;;17.80;99.90;;;;;;4880085;29;20064;-78
2022/05/24 07:38:07;;;;;;;1999.90;999.90;;;18.60;99.90;;;;;;4887038;29;20036;-76
2022/05/24 07:46:06;;;;;;;1999.90;999.90;;;19.60;99.40;;;;;;4877786;29;20539;-81
2022/05/24 07:48:34;;;;;;;1999.90;999.90;;;19.00;99.90;;;;;;4876867;29;20033;-77
2022/05/24 07:51:00;;;;;;;1999.90;999.90;;;18.30;99.90;;;;;;4876635;29;20060;-77
2022/05/24 07:53:26;;;;;;;1999.90;999.90;;;17.80;99.90;;;;;;4869890;29;20029;-76
2022/05/24 07:55:54;;;;;;;1999.90;999.90;;;16.90;99.90;;;;;;4876684;29;20128;-76
2022/05/24 07:58:20;;;;;;;1999.90;999.90;;;16.30;99.90;;;;;;4883979;29;20025;-77
2022/05/24 08:00:46;;;;;;;1999.90;999.90;;;15.80;99.90;;;;;;4876078;29;20029;-78
2022/05/24 08:03:13;;;;;;;1999.90;999.90;;;15.60;99.90;;;;;;4882256;29;20047;-80
2022/05/24 08:05:41;;;;;;;1999.90;999.90;;;15.60;99.90;;;;;;4881004;29;20152;-77
2022/05/24 08:08:08;;;;;;;1999.90;999.90;;;15.60;99.90;;;;;;4880138;29;20388;-76
2022/05/24 08:10:36;;;;;;;1999.90;999.90;;;15.80;99.90;;;;;;4877560;29;20077;-76
2022/05/24 08:13:05;;;;;;;1999.90;999.90;;;16.20;99.90;;;;;;4879261;29;20137;-79
2022/05/24 08:15:31;;;;;;;1999.90;999.90;;;16.40;99.90;;;;;;4878470;29;20033;-76
2022/05/24 08:17:57;;;;;;;1999.90;999.90;;;16.70;99.90;;;;;;4883890;29;20024;-77
2022/05/24 08:20:23;;;;;;;1999.90;999.90;;;17.00;99.90;;;;;;4879809;29;20032;-80
2022/05/24 08:22:49;;;;;;;1999.90;999.90;;;17.20;99.90;;;;;;4880161;29;20040;-79
2022/05/24 08:25:15;;;;;;;1999.90;999.90;;;17.60;99.90;;;;;;4883625;29;20056;-78
2022/05/24 08:27:41;;;;;;;1999.90;999.90;;;17.70;99.90;;;;;;4879895;29;20033;-77
2022/05/24 08:30:08;;;;;;;1999.90;999.90;;;17.80;99.90;;;;;;4895874;29;20131;-77
2022/05/24 08:32:34;;;;;;;1999.90;999.90;;;18.00;99.90;;;;;;4899087;29;20037;-78
2022/05/24 08:35:00;;;;;;;1999.90;999.90;;;17.80;99.90;;;;;;4882386;29;20043;-79
2022/05/24 08:37:26;;;;;;;1999.90;999.90;;;17.70;99.90;;;;;;4880720;29;20054;-79
2022/05/24 08:39:57;;;;;;;1999.90;999.90;;;17.50;99.90;;;;;;4874733;29;20084;-79
2022/05/24 08:42:31;;;;;;;1999.90;999.90;;;16.70;99.90;;;;;;4876330;29;20029;-79
2022/05/24 08:50:45;;;;;;;1999.90;999.90;;;15.70;99.90;;;;;;4881612;29;20067;-79
2022/05/24 08:53:16;;;;;;;1999.90;999.90;;;15.70;99.90;;;;;;4890268;29;20129;-78
2022/05/24 08:55:43;;;;;;;1999.90;999.90;;;15.90;99.90;;;;;;4878134;29;20040;-74
2022/05/24 08:58:28;;;;;;;1999.90;999.90;;;16.30;99.90;;;;;;4879277;29;20064;-79
2022/05/24 09:00:54;;;;;;;1999.90;999.90;;;16.80;99.90;;;;;;4879572;29;20357;-76
2022/05/24 09:03:24;;;;;;;1999.90;999.90;;;17.30;99.90;;;;;;4874968;29;20043;-76
2022/05/24 09:05:57;;;;;;;1999.90;999.90;;;18.00;99.90;;;;;;4883473;29;20331;-75
2022/05/24 09:08:41;;;;;;;1999.90;999.90;;;18.50;99.90;;;;;;4881391;29;20089;-75
2022/05/24 09:11:18;;;;;;;1999.90;999.90;;;18.70;99.80;;;;;;4876398;29;20029;-75
2022/05/24 09:14:08;;;;;;;1999.90;999.90;;;18.90;99.90;;;;;;4879056;29;20040;-76
2022/05/24 09:16:42;;;;;;;1999.90;999.90;;;19.30;99.90;;;;;;4877524;29;20093;-77
2022/05/24 09:19:15;;;;;;;1999.90;999.90;;;18.50;99.80;;;;;;4877146;29;20025;-77
2022/05/24 09:21:44;;;;;;;1999.90;999.90;;;18.00;99.90;;;;;;4877202;29;20504;-79
2022/05/24 09:24:44;;;;;;;1999.90;999.90;;;17.70;99.90;;;;;;4886247;29;20067;-79
2022/05/24 09:27:18;;;;;;;1999.90;999.90;;;17.90;99.90;;;;;;4878768;29;20029;-79
2022/05/24 09:30:04;;;;;;;1999.90;999.90;;;17.40;99.90;;;;;;4878456;29;20664;-78
2022/05/24 09:32:46;;;;;;;1999.90;999.90;;;16.40;99.90;;;;;;4878000;29;20067;-80
2022/05/24 09:35:21;;;;;;;1999.90;999.90;;;15.50;99.90;;;;;;4879559;29;20108;-76
2022/05/24 09:38:03;;;;;;;1999.90;999.90;;;14.60;99.90;;;;;;4884797;29;20028;-79
2022/05/24 09:40:48;;;;;;;1999.90;999.90;;;14.50;99.90;;;;;;4878449;29;20116;-76
2022/05/24 09:43:20;;;;;;;1999.90;999.90;;;14.70;99.90;;;;;;4876343;29;20036;-80
2022/05/24 09:45:53;;;;;;;1999.90;999.90;;;15.20;99.90;;;;;;4876953;29;20106;-77
2022/05/24 09:48:26;;;;;;;1999.90;999.90;;;15.50;99.90;;;;;;4875829;29;20037;-77
2022/05/24 09:50:54;;;;;;;1999.90;999.90;;;16.20;99.90;;;;;;4883026;29;20534;-78
2022/05/24 09:53:26;;;;;;;1999.90;999.90;;;17.70;99.90;;;;;;4879955;29;20400;-76
2022/05/24 09:55:59;;;;;;;1999.90;999.90;;;19.60;99.90;;;;;;4876802;29;20033;-78
2022/05/24 09:58:27;;;;;;;;;;;20.60;99.90;;;;;;4880030;29;20568;-77
2022/05/24 10:00:56;;;;;;;1999.90;999.90;;;21.40;99.90;;;;;;4876920;29;19911;-78
2022/05/24 10:03:26;;;;;;;1999.90;999.90;;;20.80;99.90;;;;;;4892393;29;20076;-78
2022/05/24 10:06:24;;;;;;;1999.90;999.90;;;19.70;99.90;;;;;;4873809;29;20116;-78
2022/05/24 10:08:52;;;;;;;1999.90;999.90;;;18.10;99.90;;;;;;4895993;29;20176;-80
2022/05/24 10:11:41;;;;;;;1999.90;999.90;;;17.70;99.90;;;;;;4879170;29;20040;-78
2022/05/24 10:14:38;;;;;;;1999.90;999.90;;;19.50;99.90;;;;;;4880818;29;20033;-78
2022/05/24 10:17:27;;;;;;;1999.90;999.90;;;20.50;99.70;;;;;;4876725;29;20875;-80
2022/05/24 10:20:11;;;;;;;1999.90;999.90;;;20.00;99.90;;;;;;4870855;29;20048;-78
2022/05/24 10:22:57;;;;;;;1999.90;999.90;;;20.80;96.20;;;;;;4879506;29;20467;-78
2022/05/24 10:25:32;;;;;;;1999.90;999.90;;;21.30;96.80;;;;;;4866107;29;20037;-78
2022/05/24 10:28:07;;;;;;;1999.90;999.90;;;21.00;97.80;;;;;;4878605;29;20105;-79
2022/05/24 10:30:57;;;;;;;1999.90;999.90;;;18.70;99.90;;;;;;4873790;29;20077;-78
2022/05/24 10:40:28;;;;;;;1999.90;999.90;;;16.70;99.90;;;;;;4862748;29;20032;-78
2022/05/24 10:42:59;;;;;;;1999.90;999.90;;;16.40;99.90;;;;;;4872709;29;21592;-82
2022/05/24 10:45:52;;;;;;;1999.90;999.90;;;16.40;99.90;;;;;;4873608;29;20032;-78
2022/05/24 10:48:23;;;;;;;1999.90;999.90;;;16.60;99.90;;;;;;4868986;29;20052;-79
2022/05/24 10:50:54;;;;;;;1999.90;999.90;;;17.00;99.90;;;;;;4875573;29;20067;-77
2022/05/24 10:53:24;;;;;;;1999.90;999.90;;;17.30;99.90;;;;;;4877981;29;20089;-77
2022/05/24 10:56:06;;;;;;;1999.90;999.90;;;17.40;99.90;;;;;;4873532;29;20100;-78
2022/05/24 10:58:36;;;;;;;1999.90;999.90;;;17.60;99.90;;;;;;4871403;29;20699;-77
2022/05/24 11:01:26;;;;;;;1999.90;999.90;;;17.60;99.90;;;;;;4869620;29;20139;-78
2022/05/24 11:03:57;;;;;;;1999.90;999.90;;;17.60;99.90;;;;;;4865843;29;20552;-79
2022/05/24 11:06:28;;;;;;;1999.90;999.90;;;17.70;99.90;;;;;;4875402;29;20145;-78
2022/05/24 11:09:23;;;;;;;1999.90;999.90;;;17.80;99.90;;;;;;4875782;29;20052;-79
2022/05/24 11:12:01;;;;;;;1999.90;999.90;;;18.10;99.90;;;;;;4861686;29;20055;-78
2022/05/24 11:14:48;;;;;;;1999.90;999.90;;;18.20;99.90;;;;;;4873945;29;20089;-78
2022/05/24 11:17:16;;;;;;;1999.90;999.90;;;18.50;99.90;;;;;;4878252;29;20075;-78
2022/05/24 11:19:55;;;;;;;1999.90;999.90;;;18.70;99.90;;;;;;4873111;29;20021;-78
2022/05/24 11:22:38;;;;;;;1999.90;999.90;;;18.30;99.90;;;;;;4880439;29;20059;-78
2022/05/24 11:25:19;;;;;;;1999.90;999.90;;;18.40;99.70;;;;;;4871581;29;20024;-78
2022/05/24 11:27:50;;;;;;;1999.90;999.90;;;18.30;99.90;;;;;;4875213;29;20013;-78
2022/05/24 11:30:35;;;;;;;1999.90;999.90;;;18.10;99.90;;;;;;4876672;29;20579;-79
2022/05/24 11:33:05;;;;;;;1999.90;999.90;;;17.70;99.90;;;;;;4884579;29;20029;-79
2022/05/24 11:35:39;;;;;;;1999.90;999.90;;;17.90;99.90;;;;;;4889806;29;20032;-78
2022/05/24 11:38:17;;;;;;;1999.90;999.90;;;18.10;99.90;;;;;;4882497;29;20473;-77
2022/05/24 11:40:59;;;;;;;1999.90;999.90;;;18.20;99.90;;;;;;4882815;29;20036;-78
2022/05/24 11:43:45;;;;;;;1999.90;999.90;;;18.30;99.40;;;;;;4889503;29;20093;-79
2022/05/24 11:46:38;;;;;;;1999.90;999.90;;;18.60;98.40;;;;;;4880487;29;20041;-81
2022/05/24 11:49:09;;;;;;;1999.90;999.90;;;18.50;98.50;;;;;;4874434;29;20048;-81
2022/05/24 11:51:47;;;;;;;1999.90;999.90;;;18.40;98.40;;;;;;4882538;29;20057;-79
2022/05/24 11:54:16;;;;;;;1999.90;999.90;;;18.60;98.00;;;;;;4882194;29;20460;-78
2022/05/24 11:57:03;;;;;;;1999.90;999.90;;;18.70;97.60;;;;;;4883366;29;20032;-78
2022/05/24 11:59:41;;;;;;;1999.90;999.90;;;19.10;97.20;;;;;;4878168;29;20061;-76
2022/05/24 12:02:23;;;;;;;1999.90;999.90;;;18.90;97.30;;;;;;4881579;29;20029;-77
2022/05/24 12:07:57;;;;;;;1999.90;999.90;;;18.70;98.00;;;;;;4879880;29;20132;-81
2022/05/24 12:10:31;;;;;;;1999.90;999.90;;;19.00;98.00;;;;;;4882493;29;20029;-81
2022/05/24 12:13:03;;;;;;;1999.90;999.90;;;18.70;97.20;;;;;;4885022;29;20027;-82
2022/05/24 12:15:33;;;;;;;1999.90;999.90;;;18.60;96.30;;;;;;4879596;29;20036;-81
2022/05/24 12:17:58;;;;;;;1999.90;999.90;;;18.80;96.50;;;;;;4878042;29;20081;-82
2022/05/24 12:20:33;;;;;;;1999.90;999.90;;;19.30;95.90;;;;;;4883695;29;20097;-82
2022/05/24 12:23:08;;;;;;;1999.90;999.90;;;19.70;96.20;;;;;;4898644;29;20045;-83
2022/05/24 12:25:58;;;;;;;1999.90;999.90;;;19.90;95.80;;;;;;4885373;29;20735;-80
2022/05/24 12:28:41;;;;;;;1999.90;999.90;;;20.50;94.80;;;;;;4885386;29;20568;-80
2022/05/24 12:31:07;;;;;;;;;;;20.30;94.80;;;;;;4876760;29;20049;-80
2022/05/24 12:33:41;;;;;;;1999.90;999.90;;;20.90;95.30;;;;;;4876880;29;20023;-81
2022/05/24 12:36:07;;;;;;;1999.90;999.90;;;20.60;95.40;;;;;;4886657;29;20037;-81
2022/05/24 12:38:35;;;;;;;1999.90;999.90;;;20.40;96.00;;;;;;4876456;29;20040;-79
2022/05/24 12:41:25;;;;;;;1999.90;999.90;;;20.10;96.10;;;;;;4879535;29;20033;-77
2022/05/24 12:44:21;;;;;;;1999.90;999.90;;;19.10;96.50;;;;;;4894680;29;20021;-80
2022/05/24 12:47:07;;;;;;;1999.90;999.90;;;19.10;97.70;;;;;;4886229;29;20033;-81
2022/05/24 12:49:54;;;;;;;1999.90;999.90;;;18.80;97.10;;;;;;4873426;29;20048;-81
2022/05/24 12:52:27;;;;;;;1999.90;999.90;;;18.80;97.10;;;;;;4872269;29;20050;-82
2022/05/24 12:54:55;;;;;;;1999.90;999.90;;;18.80;97.90;;;;;;4882233;29;20036;-80
2022/05/24 12:57:47;;;;;;;1999.90;999.90;;;19.00;98.10;;;;;;4880195;29;20037;-76
2022/05/24 13:00:21;;;;;;;1999.90;999.90;;;19.00;97.20;;;;;;4874014;29;20053;-79
2022/05/24 13:02:53;;;;;;;1999.90;999.90;;;18.50;97.00;;;;;;4878508;29;20567;-80
2022/05/24 13:05:24;;;;;;;1999.90;999.90;;;18.10;97.90;;;;;;4879970;29;20041;-82
2022/05/24 13:07:56;;;;;;;1999.90;999.90;;;18.00;96.50;;;;;;4910025;29;20037;-81
2022/05/24 13:10:29;;;;;;;1999.90;999.90;;;18.20;97.40;;;;;;4887438;29;20494;-79
2022/05/24 13:13:06;;;;;;;;;;;18.20;97.70;;;;;;4899172;29;20276;-81
2022/05/24 13:15:33;;;;;;;1999.90;999.90;;;18.20;97.60;;;;;;4891539;29;19918;-80
2022/05/24 13:18:03;;;;;;;1999.90;999.90;;;18.70;97.70;;;;;;4886733;29;20025;-84
2022/05/24 13:20:48;;;;;;;1999.90;999.90;;;18.50;97.60;;;;;;4880247;29;20037;-81
2022/05/24 13:23:16;;;;;;;1999.90;999.90;;;18.80;97.50;;;;;;4881597;29;20055;-81